Aviation Digital Data Service (ADDS)

Output produced by METARs form (1158 UTC 26 March 2019)
found at http://www.aviationweather.gov/metar/data/
 
KTCC 261138Z 2612/2712 10007KT P6SM FEW020 
     TEMPO 2612/2616 5SM BR OVC018 
     FM261600 18010KT P6SM SCT025 BKN035 
     FM261800 20014G24KT P6SM SCT035 
     FM270200 20012KT P6SM BKN035
       
KTCL 261120Z 2612/2712 35009G18KT P6SM OVC025 
     FM261600 35010G18KT P6SM BKN035 
     FM262300 34005KT P6SM SCT040
       
TAF KTCM 260502Z 2605/2711 19012KT 8000 -SHRA FEW010 BKN020 QNH2997INS 
     BECMG 2611/2612 18009KT 9999 VCSH BKN030 OVC060 QNH3004INS 
     BECMG 2614/2615 24009KT 9999 NSW SCT030 BKN060 QNH3006INS 
     BECMG 2620/2621 24010G15KT 9999 SCT200 QNH3000INS 
     BECMG 2702/2703 VRB06KT 9999 SKC QNH2996INS TX12/2621Z TN04/2612Z
       
KTCS 261120Z 2612/2712 31006KT P6SM BKN250 
     FM261400 VRB05KT P6SM FEW070 BKN200 
     FM262100 17012G20KT P6SM VCTS SCT060CB BKN200 
     FM270300 16010KT P6SM FEW070 SCT120 BKN250
       
KTEB 261135Z 2612/2718 36010G16KT P6SM SKC 
     FM262300 35008KT P6SM SKC 
     FM270700 VRB03KT P6SM SKC 
     FM271400 06004KT P6SM SKC
       
KTEX 261135Z 2612/2712 13008KT P6SM SCT200 
     FM262000 18010G15KT P6SM SCT200 
     FM262300 20012G20KT P6SM FEW080 SCT150 
     FM270200 13005KT P6SM FEW200
       
TAF AMD KTIK 260910Z 2609/2715 05006KT 9999 FEW050 QNH3025INS 
     BECMG 2613/2614 15006KT 9999 FEW050 QNH3021INS TX18/2621Z TN04/2612Z
       
KTIX 261123Z 2612/2712 17010KT P6SM BKN060 
     FM261400 31008KT P6SM SCT040 
     FM262000 02012KT P6SM FEW040 BKN070 
     FM270000 02006KT P6SM FEW060
       
KTLH 261120Z 2612/2712 00000KT 1SM BR SCT002 
     TEMPO 2612/2613 1/2SM FG BKN002 
     FM261300 33007KT P6SM SCT025 BKN040 
     FM270400 01006KT 5SM SHRA BKN025 
     FM270800 02008KT P6SM SCT025
       
KTMB 261154Z 2612/2712 26003KT P6SM SKC 
     FM261400 30008KT P6SM FEW040 
     FM262100 03008KT P6SM VCSH SCT035 
     FM270200 30004KT P6SM SCT030
       
KTOI 261120Z 2612/2712 32007KT P6SM FEW040 
     FM261600 33010KT P6SM BKN050 
     FM270100 33005KT P6SM BKN060
       
KTOL 261120Z 2612/2712 03006KT P6SM SKC 
     FM262000 09005KT P6SM SKC
       
KTOP 261157Z 2612/2712 00000KT P6SM SKC 
     TEMPO 2612/2614 1/2SM FG VV005 
     FM261400 16004KT P6SM SCT070 
     FM271000 18007KT P6SM SCT200 WS020/21050KT
       
KTPA 261137Z 2612/2718 32006KT P6SM SCT010 
     FM261400 30007KT P6SM SCT025 
     FM261800 29011KT P6SM FEW040 
     FM270200 32005KT P6SM FEW030 
     FM271100 36010KT P6SM SCT010 BKN030 
     FM271400 02012G18KT P6SM SCT030
       
KTPH 261120Z 2612/2712 VRB06KT P6SM BKN200 
     FM261800 17010G20KT P6SM BKN170 
     FM262000 18015G25KT P6SM FEW100 BKN170 
     FM270200 18011KT P6SM BKN130
       
KTRI 261125Z 2612/2712 35005KT P6SM OVC020 
     TEMPO 2612/2614 BKN015 
     FM261700 02004KT P6SM SCT035
       
KTRK 261140Z 2612/2712 19012G24KT P6SM -SHRASN SCT025 BKN035 WS020/23040KT 
     FM262000 19012G24KT P6SM VCSH BKN035 BKN050 
     FM270200 19010G18KT P6SM -RA BKN040 OVC060 
     FM270700 19006KT 5SM RA BKN030 OVC040
       
KTRM 261122Z 2612/2712 VRB05KT P6SM SCT250 
     FM270200 33009KT P6SM BKN200
       
KTTD 261134Z 2612/2712 21007KT P6SM OVC050 
     FM261600 09005KT P6SM SCT015 BKN040 
     FM261900 VRB03KT P6SM BKN050 
     FM262300 VRB03KT P6SM SCT250 
     FM270500 09010KT P6SM SCT250
       
KTTN 261120Z 2612/2712 36010G18KT P6SM SKC 
     FM261800 01008KT P6SM SKC
       
KTUL 261120Z 2612/2712 01004KT 5SM BR SKC 
     TEMPO 2612/2615 1SM BR SCT002 
     FM261600 14005KT P6SM SKC
       
KTUP 261121Z 2612/2712 02010KT P6SM BKN030 
     FM261500 02013G19KT P6SM SCT040 
     FM270000 03004KT P6SM SKC
       
KTUS 261129Z 2612/2712 15008KT P6SM BKN250 
     FM261900 22006KT P6SM BKN250 
     FM262200 29008KT P6SM BKN250 
     FM270400 23005KT P6SM BKN250 
     FM270800 15006KT P6SM BKN250
       
KTVC 261120Z 2612/2712 00000KT P6SM SKC 
     FM261700 23005KT P6SM SKC 
     FM262300 VRB04KT P6SM FEW200 
     FM270200 20005KT P6SM SCT180
       
KTVL 261140Z 2612/2712 19012G24KT P6SM -SHRASN SCT030 BKN050 WS020/23040KT 
     FM262000 19014G27KT P6SM VCSH BKN035 BKN050 
     FM270200 19010G18KT P6SM -RA BKN035 OVC050 
     FM270700 19006KT 5SM RA BKN025 OVC035
       
KTWF 261125Z 2612/2712 09006KT P6SM BKN250 
     FM261900 27010KT P6SM OVC200 
     FM270300 22008KT P6SM OVC080
       
KTXK 261130Z 2612/2712 03005KT P6SM SCT030 
     FM261600 02007KT P6SM SKC 
     FM270000 VRB03KT P6SM SKC
       
KTYR 261130Z 2612/2712 01005KT P6SM SKC 
     FM261600 04009KT P6SM SKC 
     FM270000 VRB03KT P6SM SKC
       
KTYS 261125Z 2612/2712 02010KT P6SM BKN020 
     TEMPO 2612/2614 BKN015 
     FM261700 03011KT P6SM SCT040 
     FM270100 03004KT P6SM FEW040